sensor_id;sensor_type;location;lat;lon;timestamp;P1;durP1;ratioP1;P2;durP2;ratioP2
5157;SDS011;2598;52.364;9.772;2022-07-17T00:01:49;13.67;;;3.87;;
5157;SDS011;2598;52.364;9.772;2022-07-17T00:04:15;15.80;;;4.33;;
5157;SDS011;2598;52.364;9.772;2022-07-17T00:06:40;13.67;;;3.63;;
5157;SDS011;2598;52.364;9.772;2022-07-17T00:09:06;13.10;;;4.83;;
5157;SDS011;2598;52.364;9.772;2022-07-17T00:11:32;13.27;;;4.57;;
5157;SDS011;2598;52.364;9.772;2022-07-17T00:13:58;12.70;;;4.60;;
5157;SDS011;2598;52.364;9.772;2022-07-17T00:16:24;12.17;;;4.60;;
5157;SDS011;2598;52.364;9.772;2022-07-17T00:18:50;16.87;;;4.60;;
5157;SDS011;2598;52.364;9.772;2022-07-17T00:21:16;15.13;;;4.47;;
5157;SDS011;2598;52.364;9.772;2022-07-17T00:23:42;15.07;;;4.00;;
5157;SDS011;2598;52.364;9.772;2022-07-17T00:26:08;12.27;;;3.70;;
5157;SDS011;2598;52.364;9.772;2022-07-17T00:28:35;13.07;;;2.80;;
5157;SDS011;2598;52.364;9.772;2022-07-17T00:31:01;11.43;;;3.10;;
5157;SDS011;2598;52.364;9.772;2022-07-17T00:33:27;12.83;;;3.43;;
5157;SDS011;2598;52.364;9.772;2022-07-17T00:35:53;13.17;;;3.90;;
5157;SDS011;2598;52.364;9.772;2022-07-17T00:38:19;14.50;;;3.17;;
5157;SDS011;2598;52.364;9.772;2022-07-17T00:40:45;11.60;;;3.00;;
5157;SDS011;2598;52.364;9.772;2022-07-17T00:43:11;12.80;;;3.40;;
5157;SDS011;2598;52.364;9.772;2022-07-17T00:45:36;12.13;;;2.60;;
5157;SDS011;2598;52.364;9.772;2022-07-17T00:48:08;12.27;;;3.27;;
5157;SDS011;2598;52.364;9.772;2022-07-17T00:50:36;16.63;;;2.60;;
5157;SDS011;2598;52.364;9.772;2022-07-17T00:53:02;14.23;;;3.40;;
5157;SDS011;2598;52.364;9.772;2022-07-17T00:55:28;10.20;;;2.63;;
5157;SDS011;2598;52.364;9.772;2022-07-17T00:57:55;11.67;;;3.00;;
5157;SDS011;2598;52.364;9.772;2022-07-17T01:00:22;13.80;;;2.80;;
5157;SDS011;2598;52.364;9.772;2022-07-17T01:02:49;13.30;;;2.70;;
5157;SDS011;2598;52.364;9.772;2022-07-17T01:05:16;10.53;;;2.90;;
5157;SDS011;2598;52.364;9.772;2022-07-17T01:07:43;8.40;;;2.03;;
5157;SDS011;2598;52.364;9.772;2022-07-17T01:10:09;14.87;;;3.33;;
5157;SDS011;2598;52.364;9.772;2022-07-17T01:12:35;11.40;;;3.10;;
5157;SDS011;2598;52.364;9.772;2022-07-17T01:15:02;10.73;;;2.27;;
5157;SDS011;2598;52.364;9.772;2022-07-17T01:17:28;12.57;;;3.13;;
5157;SDS011;2598;52.364;9.772;2022-07-17T01:19:55;14.40;;;2.90;;
5157;SDS011;2598;52.364;9.772;2022-07-17T01:22:21;15.53;;;2.93;;
5157;SDS011;2598;52.364;9.772;2022-07-17T01:24:47;15.50;;;3.00;;
5157;SDS011;2598;52.364;9.772;2022-07-17T01:27:13;11.60;;;3.47;;
5157;SDS011;2598;52.364;9.772;2022-07-17T01:29:39;13.33;;;3.13;;
5157;SDS011;2598;52.364;9.772;2022-07-17T01:32:05;10.30;;;2.97;;
5157;SDS011;2598;52.364;9.772;2022-07-17T01:34:31;12.83;;;2.57;;
5157;SDS011;2598;52.364;9.772;2022-07-17T01:36:57;12.20;;;2.77;;
5157;SDS011;2598;52.364;9.772;2022-07-17T01:39:23;14.23;;;2.67;;
5157;SDS011;2598;52.364;9.772;2022-07-17T01:42:08;11.90;;;2.63;;
5157;SDS011;2598;52.364;9.772;2022-07-17T01:44:34;11.00;;;2.83;;
5157;SDS011;2598;52.364;9.772;2022-07-17T01:47:01;10.63;;;2.20;;
5157;SDS011;2598;52.364;9.772;2022-07-17T01:49:27;11.03;;;2.97;;
5157;SDS011;2598;52.364;9.772;2022-07-17T01:51:53;9.70;;;2.33;;
5157;SDS011;2598;52.364;9.772;2022-07-17T01:54:19;12.70;;;2.60;;
5157;SDS011;2598;52.364;9.772;2022-07-17T01:56:45;11.33;;;2.43;;
5157;SDS011;2598;52.364;9.772;2022-07-17T01:59:11;9.70;;;2.80;;
5157;SDS011;2598;52.364;9.772;2022-07-17T02:01:37;9.87;;;2.20;;
5157;SDS011;2598;52.364;9.772;2022-07-17T02:04:03;9.30;;;2.57;;
5157;SDS011;2598;52.364;9.772;2022-07-17T02:06:29;8.90;;;2.17;;
5157;SDS011;2598;52.364;9.772;2022-07-17T02:08:55;12.73;;;3.23;;
5157;SDS011;2598;52.364;9.772;2022-07-17T02:11:21;14.90;;;2.87;;
5157;SDS011;2598;52.364;9.772;2022-07-17T02:13:47;11.20;;;2.33;;
5157;SDS011;2598;52.364;9.772;2022-07-17T02:16:13;10.27;;;2.40;;
5157;SDS011;2598;52.364;9.772;2022-07-17T02:18:39;15.53;;;2.83;;
5157;SDS011;2598;52.364;9.772;2022-07-17T02:21:04;10.77;;;2.70;;
5157;SDS011;2598;52.364;9.772;2022-07-17T02:23:30;12.20;;;2.80;;
5157;SDS011;2598;52.364;9.772;2022-07-17T02:25:56;9.67;;;2.20;;
5157;SDS011;2598;52.364;9.772;2022-07-17T02:28:23;10.87;;;2.17;;
5157;SDS011;2598;52.364;9.772;2022-07-17T02:30:49;9.53;;;2.03;;
5157;SDS011;2598;52.364;9.772;2022-07-17T02:33:15;13.37;;;3.53;;
5157;SDS011;2598;52.364;9.772;2022-07-17T02:35:41;11.03;;;2.37;;
5157;SDS011;2598;52.364;9.772;2022-07-17T02:38:07;13.63;;;2.33;;
5157;SDS011;2598;52.364;9.772;2022-07-17T02:40:33;16.67;;;2.57;;
5157;SDS011;2598;52.364;9.772;2022-07-17T02:42:59;11.30;;;2.43;;
5157;SDS011;2598;52.364;9.772;2022-07-17T02:45:25;9.83;;;2.20;;
5157;SDS011;2598;52.364;9.772;2022-07-17T02:47:51;8.67;;;1.70;;
5157;SDS011;2598;52.364;9.772;2022-07-17T02:50:18;9.27;;;1.73;;
5157;SDS011;2598;52.364;9.772;2022-07-17T02:52:44;10.10;;;2.13;;
5157;SDS011;2598;52.364;9.772;2022-07-17T02:55:10;7.73;;;1.57;;
5157;SDS011;2598;52.364;9.772;2022-07-17T02:57:37;12.30;;;2.17;;
5157;SDS011;2598;52.364;9.772;2022-07-17T03:00:07;12.33;;;1.77;;
5157;SDS011;2598;52.364;9.772;2022-07-17T03:02:33;10.03;;;1.90;;
5157;SDS011;2598;52.364;9.772;2022-07-17T03:04:59;12.07;;;2.13;;
5157;SDS011;2598;52.364;9.772;2022-07-17T03:07:25;13.40;;;1.87;;
5157;SDS011;2598;52.364;9.772;2022-07-17T03:09:51;9.00;;;1.80;;
5157;SDS011;2598;52.364;9.772;2022-07-17T03:12:17;9.83;;;1.80;;
5157;SDS011;2598;52.364;9.772;2022-07-17T03:14:43;9.93;;;1.90;;
5157;SDS011;2598;52.364;9.772;2022-07-17T03:17:09;9.93;;;2.20;;
5157;SDS011;2598;52.364;9.772;2022-07-17T03:19:35;12.53;;;2.20;;
5157;SDS011;2598;52.364;9.772;2022-07-17T03:22:01;11.57;;;2.17;;
5157;SDS011;2598;52.364;9.772;2022-07-17T03:24:27;9.13;;;2.13;;
5157;SDS011;2598;52.364;9.772;2022-07-17T03:26:53;13.90;;;2.30;;
5157;SDS011;2598;52.364;9.772;2022-07-17T03:29:19;13.40;;;2.07;;
5157;SDS011;2598;52.364;9.772;2022-07-17T03:31:46;12.93;;;2.30;;
5157;SDS011;2598;52.364;9.772;2022-07-17T03:34:12;10.87;;;1.90;;
5157;SDS011;2598;52.364;9.772;2022-07-17T03:36:38;11.23;;;1.97;;
5157;SDS011;2598;52.364;9.772;2022-07-17T03:39:04;9.90;;;1.90;;
5157;SDS011;2598;52.364;9.772;2022-07-17T03:41:31;9.10;;;1.70;;
5157;SDS011;2598;52.364;9.772;2022-07-17T03:43:57;9.83;;;2.20;;
5157;SDS011;2598;52.364;9.772;2022-07-17T03:46:22;9.73;;;2.20;;
5157;SDS011;2598;52.364;9.772;2022-07-17T03:48:49;9.80;;;1.83;;
5157;SDS011;2598;52.364;9.772;2022-07-17T03:51:15;10.50;;;2.00;;
5157;SDS011;2598;52.364;9.772;2022-07-17T03:53:41;9.30;;;1.80;;
5157;SDS011;2598;52.364;9.772;2022-07-17T03:56:07;9.70;;;1.90;;
5157;SDS011;2598;52.364;9.772;2022-07-17T03:58:33;9.57;;;1.77;;
5157;SDS011;2598;52.364;9.772;2022-07-17T04:00:59;9.67;;;1.60;;
5157;SDS011;2598;52.364;9.772;2022-07-17T04:03:25;9.70;;;1.80;;
5157;SDS011;2598;52.364;9.772;2022-07-17T04:05:52;9.47;;;2.10;;
5157;SDS011;2598;52.364;9.772;2022-07-17T04:08:18;13.20;;;2.30;;
5157;SDS011;2598;52.364;9.772;2022-07-17T04:10:44;9.67;;;2.07;;
5157;SDS011;2598;52.364;9.772;2022-07-17T04:13:10;11.17;;;2.27;;
5157;SDS011;2598;52.364;9.772;2022-07-17T04:15:36;15.57;;;2.03;;
5157;SDS011;2598;52.364;9.772;2022-07-17T04:18:14;13.43;;;2.33;;
5157;SDS011;2598;52.364;9.772;2022-07-17T04:20:40;12.73;;;2.10;;
5157;SDS011;2598;52.364;9.772;2022-07-17T04:23:06;11.30;;;2.30;;
5157;SDS011;2598;52.364;9.772;2022-07-17T04:25:33;8.50;;;1.73;;
5157;SDS011;2598;52.364;9.772;2022-07-17T04:27:59;9.07;;;1.80;;
5157;SDS011;2598;52.364;9.772;2022-07-17T04:30:25;9.80;;;2.17;;
5157;SDS011;2598;52.364;9.772;2022-07-17T04:32:51;11.03;;;1.93;;
5157;SDS011;2598;52.364;9.772;2022-07-17T04:35:17;11.43;;;2.37;;
5157;SDS011;2598;52.364;9.772;2022-07-17T04:37:43;10.33;;;2.03;;
5157;SDS011;2598;52.364;9.772;2022-07-17T04:40:09;12.17;;;1.93;;
5157;SDS011;2598;52.364;9.772;2022-07-17T04:42:35;12.10;;;2.10;;
5157;SDS011;2598;52.364;9.772;2022-07-17T04:45:01;9.80;;;1.73;;
5157;SDS011;2598;52.364;9.772;2022-07-17T04:47:27;9.83;;;1.87;;
5157;SDS011;2598;52.364;9.772;2022-07-17T04:49:53;11.33;;;2.30;;
5157;SDS011;2598;52.364;9.772;2022-07-17T04:52:19;13.10;;;1.87;;
5157;SDS011;2598;52.364;9.772;2022-07-17T04:54:45;14.97;;;2.07;;
5157;SDS011;2598;52.364;9.772;2022-07-17T04:57:11;9.70;;;1.60;;
5157;SDS011;2598;52.364;9.772;2022-07-17T04:59:37;9.63;;;2.03;;
5157;SDS011;2598;52.364;9.772;2022-07-17T05:02:03;10.03;;;2.00;;
5157;SDS011;2598;52.364;9.772;2022-07-17T05:04:29;8.27;;;1.63;;
5157;SDS011;2598;52.364;9.772;2022-07-17T05:06:55;9.77;;;2.10;;
5157;SDS011;2598;52.364;9.772;2022-07-17T05:09:21;14.40;;;2.00;;
5157;SDS011;2598;52.364;9.772;2022-07-17T05:11:47;12.20;;;1.73;;
5157;SDS011;2598;52.364;9.772;2022-07-17T05:14:13;14.13;;;1.90;;
5157;SDS011;2598;52.364;9.772;2022-07-17T05:16:39;12.17;;;2.13;;
5157;SDS011;2598;52.364;9.772;2022-07-17T05:19:05;10.43;;;1.93;;
5157;SDS011;2598;52.364;9.772;2022-07-17T05:21:31;10.60;;;2.10;;
5157;SDS011;2598;52.364;9.772;2022-07-17T05:23:57;8.77;;;1.70;;
5157;SDS011;2598;52.364;9.772;2022-07-17T05:26:24;9.07;;;1.67;;
5157;SDS011;2598;52.364;9.772;2022-07-17T05:28:50;14.30;;;2.60;;
5157;SDS011;2598;52.364;9.772;2022-07-17T05:31:16;11.63;;;1.60;;
5157;SDS011;2598;52.364;9.772;2022-07-17T05:33:42;10.50;;;2.20;;
5157;SDS011;2598;52.364;9.772;2022-07-17T05:36:08;10.20;;;2.07;;
5157;SDS011;2598;52.364;9.772;2022-07-17T05:38:34;10.83;;;1.93;;
5157;SDS011;2598;52.364;9.772;2022-07-17T05:41:01;11.00;;;2.20;;
5157;SDS011;2598;52.364;9.772;2022-07-17T05:43:27;10.20;;;1.30;;
5157;SDS011;2598;52.364;9.772;2022-07-17T05:45:54;8.70;;;1.60;;
5157;SDS011;2598;52.364;9.772;2022-07-17T05:48:20;9.37;;;1.90;;
5157;SDS011;2598;52.364;9.772;2022-07-17T05:50:46;11.33;;;2.00;;
5157;SDS011;2598;52.364;9.772;2022-07-17T05:53:12;11.80;;;1.90;;
5157;SDS011;2598;52.364;9.772;2022-07-17T05:55:39;11.33;;;1.53;;
5157;SDS011;2598;52.364;9.772;2022-07-17T05:58:06;12.83;;;2.10;;
5157;SDS011;2598;52.364;9.772;2022-07-17T06:00:32;13.87;;;2.23;;
5157;SDS011;2598;52.364;9.772;2022-07-17T06:02:58;9.37;;;1.93;;
5157;SDS011;2598;52.364;9.772;2022-07-17T06:05:24;12.53;;;2.10;;
5157;SDS011;2598;52.364;9.772;2022-07-17T06:07:54;10.87;;;2.30;;
5157;SDS011;2598;52.364;9.772;2022-07-17T06:10:20;15.90;;;1.80;;
5157;SDS011;2598;52.364;9.772;2022-07-17T06:12:46;12.80;;;1.77;;
5157;SDS011;2598;52.364;9.772;2022-07-17T06:15:12;13.80;;;1.77;;
5157;SDS011;2598;52.364;9.772;2022-07-17T06:17:38;11.40;;;1.77;;
5157;SDS011;2598;52.364;9.772;2022-07-17T06:20:05;12.87;;;1.70;;
5157;SDS011;2598;52.364;9.772;2022-07-17T06:22:31;9.53;;;1.80;;
5157;SDS011;2598;52.364;9.772;2022-07-17T06:24:57;9.80;;;1.83;;
5157;SDS011;2598;52.364;9.772;2022-07-17T06:27:23;9.37;;;1.60;;
5157;SDS011;2598;52.364;9.772;2022-07-17T06:29:49;12.27;;;1.87;;
5157;SDS011;2598;52.364;9.772;2022-07-17T06:32:15;12.00;;;1.63;;
5157;SDS011;2598;52.364;9.772;2022-07-17T06:34:41;11.97;;;1.70;;
5157;SDS011;2598;52.364;9.772;2022-07-17T06:37:08;9.23;;;2.10;;
5157;SDS011;2598;52.364;9.772;2022-07-17T06:39:34;9.60;;;1.50;;
5157;SDS011;2598;52.364;9.772;2022-07-17T06:42:00;13.20;;;1.90;;
5157;SDS011;2598;52.364;9.772;2022-07-17T06:44:26;12.53;;;2.10;;
5157;SDS011;2598;52.364;9.772;2022-07-17T06:46:52;16.00;;;2.10;;
5157;SDS011;2598;52.364;9.772;2022-07-17T06:49:18;14.03;;;1.90;;
5157;SDS011;2598;52.364;9.772;2022-07-17T06:51:44;9.40;;;1.53;;
5157;SDS011;2598;52.364;9.772;2022-07-17T06:54:11;9.10;;;1.60;;
5157;SDS011;2598;52.364;9.772;2022-07-17T06:56:38;15.47;;;2.40;;
5157;SDS011;2598;52.364;9.772;2022-07-17T06:59:04;9.57;;;1.60;;
5157;SDS011;2598;52.364;9.772;2022-07-17T07:01:32;10.57;;;1.80;;
5157;SDS011;2598;52.364;9.772;2022-07-17T07:03:58;11.83;;;1.90;;
5157;SDS011;2598;52.364;9.772;2022-07-17T07:06:24;11.40;;;2.27;;
5157;SDS011;2598;52.364;9.772;2022-07-17T07:08:50;12.20;;;1.90;;
5157;SDS011;2598;52.364;9.772;2022-07-17T07:11:16;12.57;;;1.70;;
5157;SDS011;2598;52.364;9.772;2022-07-17T07:13:41;8.47;;;1.37;;
5157;SDS011;2598;52.364;9.772;2022-07-17T07:16:07;10.87;;;1.50;;
5157;SDS011;2598;52.364;9.772;2022-07-17T07:18:33;11.27;;;2.30;;
5157;SDS011;2598;52.364;9.772;2022-07-17T07:20:59;9.40;;;1.87;;
5157;SDS011;2598;52.364;9.772;2022-07-17T07:23:25;13.03;;;1.97;;
5157;SDS011;2598;52.364;9.772;2022-07-17T07:25:51;11.67;;;1.63;;
5157;SDS011;2598;52.364;9.772;2022-07-17T07:28:17;11.00;;;1.70;;
5157;SDS011;2598;52.364;9.772;2022-07-17T07:30:43;10.40;;;1.50;;
5157;SDS011;2598;52.364;9.772;2022-07-17T07:33:09;9.10;;;1.43;;
5157;SDS011;2598;52.364;9.772;2022-07-17T07:35:35;10.90;;;1.60;;
5157;SDS011;2598;52.364;9.772;2022-07-17T07:38:02;11.40;;;2.10;;
5157;SDS011;2598;52.364;9.772;2022-07-17T07:40:28;10.63;;;1.47;;
5157;SDS011;2598;52.364;9.772;2022-07-17T07:42:54;10.73;;;1.67;;
5157;SDS011;2598;52.364;9.772;2022-07-17T07:45:20;10.50;;;1.80;;
5157;SDS011;2598;52.364;9.772;2022-07-17T07:47:47;11.57;;;1.47;;
5157;SDS011;2598;52.364;9.772;2022-07-17T07:50:15;9.87;;;1.60;;
5157;SDS011;2598;52.364;9.772;2022-07-17T07:52:41;8.83;;;1.40;;
5157;SDS011;2598;52.364;9.772;2022-07-17T07:55:07;7.80;;;1.70;;
5157;SDS011;2598;52.364;9.772;2022-07-17T07:57:34;10.43;;;1.70;;
5157;SDS011;2598;52.364;9.772;2022-07-17T08:00:00;12.20;;;1.33;;
5157;SDS011;2598;52.364;9.772;2022-07-17T08:02:26;14.10;;;1.40;;
5157;SDS011;2598;52.364;9.772;2022-07-17T08:04:52;9.30;;;1.37;;
5157;SDS011;2598;52.364;9.772;2022-07-17T08:07:18;10.17;;;1.83;;
5157;SDS011;2598;52.364;9.772;2022-07-17T08:09:44;13.53;;;1.70;;
5157;SDS011;2598;52.364;9.772;2022-07-17T08:12:10;8.27;;;1.50;;
5157;SDS011;2598;52.364;9.772;2022-07-17T08:14:36;10.90;;;1.80;;
5157;SDS011;2598;52.364;9.772;2022-07-17T08:17:02;12.07;;;1.77;;
5157;SDS011;2598;52.364;9.772;2022-07-17T08:19:28;11.83;;;1.70;;
5157;SDS011;2598;52.364;9.772;2022-07-17T08:21:54;9.80;;;1.50;;
5157;SDS011;2598;52.364;9.772;2022-07-17T08:24:19;8.40;;;1.03;;
5157;SDS011;2598;52.364;9.772;2022-07-17T08:26:45;12.30;;;1.30;;
5157;SDS011;2598;52.364;9.772;2022-07-17T08:29:11;15.60;;;1.73;;
5157;SDS011;2598;52.364;9.772;2022-07-17T08:31:37;14.47;;;2.50;;
5157;SDS011;2598;52.364;9.772;2022-07-17T08:34:03;9.53;;;1.80;;
5157;SDS011;2598;52.364;9.772;2022-07-17T08:36:29;10.83;;;1.53;;
5157;SDS011;2598;52.364;9.772;2022-07-17T08:38:55;10.10;;;1.50;;
5157;SDS011;2598;52.364;9.772;2022-07-17T08:41:21;12.43;;;1.57;;
5157;SDS011;2598;52.364;9.772;2022-07-17T08:43:47;15.10;;;1.70;;
5157;SDS011;2598;52.364;9.772;2022-07-17T08:46:15;12.30;;;1.60;;
5157;SDS011;2598;52.364;9.772;2022-07-17T08:48:42;9.60;;;1.60;;
5157;SDS011;2598;52.364;9.772;2022-07-17T08:51:10;9.83;;;1.77;;
5157;SDS011;2598;52.364;9.772;2022-07-17T08:53:36;17.30;;;2.20;;
5157;SDS011;2598;52.364;9.772;2022-07-17T08:56:02;9.67;;;1.83;;
5157;SDS011;2598;52.364;9.772;2022-07-17T08:58:29;8.53;;;1.83;;
5157;SDS011;2598;52.364;9.772;2022-07-17T09:00:55;14.43;;;1.67;;
5157;SDS011;2598;52.364;9.772;2022-07-17T09:03:21;9.13;;;2.00;;
5157;SDS011;2598;52.364;9.772;2022-07-17T09:05:48;8.60;;;1.63;;
5157;SDS011;2598;52.364;9.772;2022-07-17T09:08:21;9.90;;;1.63;;
5157;SDS011;2598;52.364;9.772;2022-07-17T09:10:48;10.23;;;1.50;;
5157;SDS011;2598;52.364;9.772;2022-07-17T09:15:43;10.70;;;1.70;;
5157;SDS011;2598;52.364;9.772;2022-07-17T09:18:09;13.47;;;1.97;;
5157;SDS011;2598;52.364;9.772;2022-07-17T09:20:35;8.40;;;1.23;;
5157;SDS011;2598;52.364;9.772;2022-07-17T09:23:04;10.23;;;1.80;;
5157;SDS011;2598;52.364;9.772;2022-07-17T09:25:31;12.87;;;1.90;;
5157;SDS011;2598;52.364;9.772;2022-07-17T09:27:58;9.73;;;1.43;;
5157;SDS011;2598;52.364;9.772;2022-07-17T09:30:25;8.40;;;1.60;;
5157;SDS011;2598;52.364;9.772;2022-07-17T09:32:54;8.70;;;1.63;;
5157;SDS011;2598;52.364;9.772;2022-07-17T09:35:21;10.73;;;1.57;;
5157;SDS011;2598;52.364;9.772;2022-07-17T09:37:47;13.90;;;1.90;;
5157;SDS011;2598;52.364;9.772;2022-07-17T09:40:14;13.00;;;1.83;;
5157;SDS011;2598;52.364;9.772;2022-07-17T09:42:59;9.30;;;1.50;;
5157;SDS011;2598;52.364;9.772;2022-07-17T09:45:25;11.23;;;2.10;;
5157;SDS011;2598;52.364;9.772;2022-07-17T09:47:51;12.30;;;1.70;;
5157;SDS011;2598;52.364;9.772;2022-07-17T09:50:18;10.03;;;1.63;;
5157;SDS011;2598;52.364;9.772;2022-07-17T09:52:45;12.20;;;2.10;;
5157;SDS011;2598;52.364;9.772;2022-07-17T09:55:11;10.43;;;1.93;;
5157;SDS011;2598;52.364;9.772;2022-07-17T09:57:39;8.20;;;1.47;;
5157;SDS011;2598;52.364;9.772;2022-07-17T10:00:06;11.07;;;1.60;;
5157;SDS011;2598;52.364;9.772;2022-07-17T10:02:37;17.50;;;1.97;;
5157;SDS011;2598;52.364;9.772;2022-07-17T10:05:05;10.93;;;1.70;;
5157;SDS011;2598;52.364;9.772;2022-07-17T10:07:32;10.33;;;1.93;;
5157;SDS011;2598;52.364;9.772;2022-07-17T10:09:59;12.23;;;2.03;;
5157;SDS011;2598;52.364;9.772;2022-07-17T10:12:25;12.93;;;1.90;;
5157;SDS011;2598;52.364;9.772;2022-07-17T10:14:52;10.83;;;1.67;;
5157;SDS011;2598;52.364;9.772;2022-07-17T10:17:21;9.03;;;1.90;;
5157;SDS011;2598;52.364;9.772;2022-07-17T10:19:55;12.50;;;1.70;;
5157;SDS011;2598;52.364;9.772;2022-07-17T10:22:21;9.50;;;1.83;;
5157;SDS011;2598;52.364;9.772;2022-07-17T10:24:48;11.10;;;2.00;;
5157;SDS011;2598;52.364;9.772;2022-07-17T10:27:19;8.47;;;1.80;;
5157;SDS011;2598;52.364;9.772;2022-07-17T10:29:45;8.30;;;1.63;;
5157;SDS011;2598;52.364;9.772;2022-07-17T10:32:15;9.57;;;2.07;;
5157;SDS011;2598;52.364;9.772;2022-07-17T10:34:45;8.27;;;1.30;;
5157;SDS011;2598;52.364;9.772;2022-07-17T10:37:15;9.10;;;1.50;;
5157;SDS011;2598;52.364;9.772;2022-07-17T10:39:51;12.50;;;1.97;;
5157;SDS011;2598;52.364;9.772;2022-07-17T10:42:36;9.50;;;1.90;;
5157;SDS011;2598;52.364;9.772;2022-07-17T10:45:06;9.00;;;1.80;;
5157;SDS011;2598;52.364;9.772;2022-07-17T10:47:42;9.00;;;1.90;;
5157;SDS011;2598;52.364;9.772;2022-07-17T10:50:09;9.80;;;1.63;;
5157;SDS011;2598;52.364;9.772;2022-07-17T10:52:36;8.27;;;1.60;;
5157;SDS011;2598;52.364;9.772;2022-07-17T10:55:02;11.07;;;1.60;;
5157;SDS011;2598;52.364;9.772;2022-07-17T10:57:30;9.37;;;1.77;;
5157;SDS011;2598;52.364;9.772;2022-07-17T10:59:56;10.80;;;1.50;;
5157;SDS011;2598;52.364;9.772;2022-07-17T11:02:29;7.63;;;1.40;;
5157;SDS011;2598;52.364;9.772;2022-07-17T11:05:04;9.67;;;1.40;;
5157;SDS011;2598;52.364;9.772;2022-07-17T11:07:30;10.17;;;1.80;;
5157;SDS011;2598;52.364;9.772;2022-07-17T11:09:56;9.47;;;1.90;;
5157;SDS011;2598;52.364;9.772;2022-07-17T11:12:32;10.83;;;1.60;;
5157;SDS011;2598;52.364;9.772;2022-07-17T11:14:59;10.53;;;1.93;;
5157;SDS011;2598;52.364;9.772;2022-07-17T11:17:25;11.57;;;1.63;;
5157;SDS011;2598;52.364;9.772;2022-07-17T11:19:51;8.37;;;1.80;;
5157;SDS011;2598;52.364;9.772;2022-07-17T11:22:21;8.70;;;1.30;;
5157;SDS011;2598;52.364;9.772;2022-07-17T11:24:48;8.13;;;1.53;;
5157;SDS011;2598;52.364;9.772;2022-07-17T11:27:19;7.87;;;1.50;;
5157;SDS011;2598;52.364;9.772;2022-07-17T11:29:45;9.10;;;1.70;;
5157;SDS011;2598;52.364;9.772;2022-07-17T11:32:11;8.80;;;1.50;;
5157;SDS011;2598;52.364;9.772;2022-07-17T11:34:37;8.53;;;1.47;;
5157;SDS011;2598;52.364;9.772;2022-07-17T11:37:04;9.33;;;1.97;;
5157;SDS011;2598;52.364;9.772;2022-07-17T11:39:40;13.50;;;1.77;;
5157;SDS011;2598;52.364;9.772;2022-07-17T11:42:10;8.53;;;1.40;;
5157;SDS011;2598;52.364;9.772;2022-07-17T11:44:36;8.20;;;1.60;;
5157;SDS011;2598;52.364;9.772;2022-07-17T11:47:02;9.10;;;1.40;;
5157;SDS011;2598;52.364;9.772;2022-07-17T11:51:56;11.07;;;2.07;;
5157;SDS011;2598;52.364;9.772;2022-07-17T11:54:23;7.70;;;1.63;;
5157;SDS011;2598;52.364;9.772;2022-07-17T11:56:51;8.83;;;1.80;;
5157;SDS011;2598;52.364;9.772;2022-07-17T11:59:25;11.20;;;1.97;;
5157;SDS011;2598;52.364;9.772;2022-07-17T12:01:52;12.10;;;1.70;;
5157;SDS011;2598;52.364;9.772;2022-07-17T12:04:19;9.37;;;1.57;;
5157;SDS011;2598;52.364;9.772;2022-07-17T12:06:45;10.40;;;1.93;;
5157;SDS011;2598;52.364;9.772;2022-07-17T12:09:12;9.10;;;1.80;;
5157;SDS011;2598;52.364;9.772;2022-07-17T12:11:45;7.90;;;1.60;;
5157;SDS011;2598;52.364;9.772;2022-07-17T12:14:11;9.43;;;1.97;;
5157;SDS011;2598;52.364;9.772;2022-07-17T12:16:37;8.17;;;1.70;;
5157;SDS011;2598;52.364;9.772;2022-07-17T12:19:05;9.40;;;1.93;;
5157;SDS011;2598;52.364;9.772;2022-07-17T12:21:33;8.50;;;1.90;;
5157;SDS011;2598;52.364;9.772;2022-07-17T12:24:01;9.90;;;1.97;;
5157;SDS011;2598;52.364;9.772;2022-07-17T12:26:28;9.43;;;1.87;;
5157;SDS011;2598;52.364;9.772;2022-07-17T12:28:54;9.20;;;1.73;;
5157;SDS011;2598;52.364;9.772;2022-07-17T12:31:20;9.80;;;2.00;;
5157;SDS011;2598;52.364;9.772;2022-07-17T12:33:48;8.97;;;1.63;;
5157;SDS011;2598;52.364;9.772;2022-07-17T12:36:15;8.53;;;1.50;;
5157;SDS011;2598;52.364;9.772;2022-07-17T12:38:41;11.97;;;2.13;;
5157;SDS011;2598;52.364;9.772;2022-07-17T12:41:07;8.40;;;1.50;;
5157;SDS011;2598;52.364;9.772;2022-07-17T12:43:33;8.53;;;1.40;;
5157;SDS011;2598;52.364;9.772;2022-07-17T12:45:59;10.23;;;1.97;;
5157;SDS011;2598;52.364;9.772;2022-07-17T12:48:25;7.30;;;1.43;;
5157;SDS011;2598;52.364;9.772;2022-07-17T12:50:51;8.93;;;1.63;;
5157;SDS011;2598;52.364;9.772;2022-07-17T12:53:17;9.00;;;1.40;;
5157;SDS011;2598;52.364;9.772;2022-07-17T12:55:43;9.20;;;1.73;;
5157;SDS011;2598;52.364;9.772;2022-07-17T12:58:09;8.60;;;1.87;;
5157;SDS011;2598;52.364;9.772;2022-07-17T13:00:35;9.80;;;1.83;;
5157;SDS011;2598;52.364;9.772;2022-07-17T13:03:01;9.03;;;2.07;;
5157;SDS011;2598;52.364;9.772;2022-07-17T13:05:28;9.87;;;1.63;;
5157;SDS011;2598;52.364;9.772;2022-07-17T13:07:54;7.77;;;1.70;;
5157;SDS011;2598;52.364;9.772;2022-07-17T13:10:20;9.07;;;1.93;;
5157;SDS011;2598;52.364;9.772;2022-07-17T13:12:46;13.03;;;1.80;;
5157;SDS011;2598;52.364;9.772;2022-07-17T13:15:12;9.00;;;1.67;;
5157;SDS011;2598;52.364;9.772;2022-07-17T13:17:38;9.10;;;1.60;;
5157;SDS011;2598;52.364;9.772;2022-07-17T13:20:04;8.80;;;1.60;;
5157;SDS011;2598;52.364;9.772;2022-07-17T13:22:30;8.63;;;1.40;;
5157;SDS011;2598;52.364;9.772;2022-07-17T13:24:56;9.10;;;1.80;;
5157;SDS011;2598;52.364;9.772;2022-07-17T13:27:22;10.77;;;1.43;;
5157;SDS011;2598;52.364;9.772;2022-07-17T13:29:48;10.63;;;1.77;;
5157;SDS011;2598;52.364;9.772;2022-07-17T13:32:14;8.37;;;1.60;;
5157;SDS011;2598;52.364;9.772;2022-07-17T13:34:40;7.77;;;1.50;;
5157;SDS011;2598;52.364;9.772;2022-07-17T13:37:07;11.53;;;1.57;;
5157;SDS011;2598;52.364;9.772;2022-07-17T13:39:33;8.87;;;1.50;;
5157;SDS011;2598;52.364;9.772;2022-07-17T13:41:59;7.67;;;1.50;;
5157;SDS011;2598;52.364;9.772;2022-07-17T13:44:25;10.50;;;1.70;;
5157;SDS011;2598;52.364;9.772;2022-07-17T13:46:51;8.93;;;1.80;;
5157;SDS011;2598;52.364;9.772;2022-07-17T13:49:17;9.07;;;1.47;;
5157;SDS011;2598;52.364;9.772;2022-07-17T13:51:43;9.47;;;1.57;;
5157;SDS011;2598;52.364;9.772;2022-07-17T13:54:09;9.40;;;2.10;;
5157;SDS011;2598;52.364;9.772;2022-07-17T13:56:35;9.80;;;1.60;;
5157;SDS011;2598;52.364;9.772;2022-07-17T13:59:01;8.20;;;1.70;;
5157;SDS011;2598;52.364;9.772;2022-07-17T14:01:27;8.17;;;1.63;;
5157;SDS011;2598;52.364;9.772;2022-07-17T14:03:53;8.80;;;1.93;;
5157;SDS011;2598;52.364;9.772;2022-07-17T14:06:19;11.30;;;2.20;;
5157;SDS011;2598;52.364;9.772;2022-07-17T14:08:46;9.37;;;1.50;;
5157;SDS011;2598;52.364;9.772;2022-07-17T14:11:12;8.90;;;1.50;;
5157;SDS011;2598;52.364;9.772;2022-07-17T14:13:39;9.03;;;1.70;;
5157;SDS011;2598;52.364;9.772;2022-07-17T14:16:05;6.80;;;1.40;;
5157;SDS011;2598;52.364;9.772;2022-07-17T14:18:31;8.03;;;1.50;;
5157;SDS011;2598;52.364;9.772;2022-07-17T14:20:57;9.50;;;1.60;;
5157;SDS011;2598;52.364;9.772;2022-07-17T14:23:23;12.57;;;2.27;;
5157;SDS011;2598;52.364;9.772;2022-07-17T14:25:49;7.27;;;1.53;;
5157;SDS011;2598;52.364;9.772;2022-07-17T14:28:15;8.27;;;1.73;;
5157;SDS011;2598;52.364;9.772;2022-07-17T14:30:41;9.93;;;1.80;;
5157;SDS011;2598;52.364;9.772;2022-07-17T14:33:07;7.10;;;1.40;;
5157;SDS011;2598;52.364;9.772;2022-07-17T14:35:33;8.57;;;1.80;;
5157;SDS011;2598;52.364;9.772;2022-07-17T14:38:00;7.27;;;1.40;;
5157;SDS011;2598;52.364;9.772;2022-07-17T14:40:26;9.60;;;1.83;;
5157;SDS011;2598;52.364;9.772;2022-07-17T14:42:52;10.87;;;1.87;;
5157;SDS011;2598;52.364;9.772;2022-07-17T14:45:18;12.63;;;2.17;;
5157;SDS011;2598;52.364;9.772;2022-07-17T14:47:44;9.47;;;1.47;;
5157;SDS011;2598;52.364;9.772;2022-07-17T14:50:10;8.73;;;1.83;;
5157;SDS011;2598;52.364;9.772;2022-07-17T14:52:36;7.77;;;1.50;;
5157;SDS011;2598;52.364;9.772;2022-07-17T14:55:03;10.33;;;1.70;;
5157;SDS011;2598;52.364;9.772;2022-07-17T14:57:29;9.97;;;1.80;;
5157;SDS011;2598;52.364;9.772;2022-07-17T14:59:55;8.63;;;1.70;;
5157;SDS011;2598;52.364;9.772;2022-07-17T15:02:21;7.33;;;1.27;;
5157;SDS011;2598;52.364;9.772;2022-07-17T15:04:47;8.60;;;1.60;;
5157;SDS011;2598;52.364;9.772;2022-07-17T15:07:13;11.13;;;2.00;;
5157;SDS011;2598;52.364;9.772;2022-07-17T15:09:39;9.30;;;1.80;;